createdAt,value
2023-01-27T00:00:53.758Z,80.07
2023-01-27T00:03:20.892Z,78.76
2023-01-27T00:05:47.832Z,79.05
2023-01-27T00:08:15.231Z,79.62
2023-01-27T00:10:42.151Z,80.52
2023-01-27T00:13:27.897Z,80.33
2023-01-27T00:15:55.500Z,79.74
2023-01-27T00:18:23.588Z,78.59
2023-01-27T00:21:08.736Z,78.78
2023-01-27T00:23:54.013Z,79.70
2023-01-27T00:26:20.681Z,81.12
2023-01-27T00:28:48.122Z,81.24
2023-01-27T00:31:34.960Z,80.70
2023-01-27T00:34:09.253Z,78.98
2023-01-27T00:36:38.788Z,79.03
2023-01-27T00:39:06.945Z,78.84
2023-01-27T00:41:34.145Z,78.87
2023-01-27T00:44:01.835Z,78.16
2023-01-27T00:46:28.864Z,78.71
2023-01-27T00:48:55.809Z,79.42
2023-01-27T00:51:23.132Z,78.55
2023-01-27T00:53:50.302Z,78.04
2023-01-27T00:56:17.658Z,78.01
2023-01-27T00:58:44.310Z,77.61
2023-01-27T01:01:13.994Z,77.88
2023-01-27T01:03:40.996Z,78.88
2023-01-27T01:06:09.791Z,79.31
2023-01-27T01:08:37.612Z,80.04
2023-01-27T01:11:08.915Z,80.49
2023-01-27T01:13:35.568Z,80.29
2023-01-27T01:16:10.866Z,79.21
2023-01-27T01:18:38.996Z,78.87
2023-01-27T01:21:09.602Z,78.08
2023-01-27T01:23:41.718Z,78.49
2023-01-27T01:26:10.510Z,79.24
2023-01-27T01:28:38.810Z,79.45
2023-01-27T01:31:13.513Z,78.87
2023-01-27T01:33:40.385Z,77.85
2023-01-27T01:36:09.159Z,76.95
2023-01-27T01:38:36.752Z,78.17
2023-01-27T01:41:04.920Z,78.23
2023-01-27T01:43:31.561Z,77.38
2023-01-27T01:46:00.073Z,77.64
2023-01-27T01:48:35.518Z,77.63
2023-01-27T01:51:31.808Z,78.05
2023-01-27T01:54:06.453Z,78.75
2023-01-27T01:56:47.644Z,77.61
2023-01-27T01:59:19.333Z,76.81
2023-01-27T02:01:46.198Z,76.98
2023-01-27T02:04:19.023Z,77.29
2023-01-27T02:07:08.202Z,76.93
2023-01-27T02:09:35.284Z,77.06
2023-01-27T02:12:02.120Z,77.09
2023-01-27T02:14:28.865Z,77.92
2023-01-27T02:16:55.820Z,77.62
2023-01-27T02:19:37.811Z,77.46
2023-01-27T02:22:10.978Z,77.47
2023-01-27T02:24:44.642Z,77.57
2023-01-27T02:27:14.153Z,77.64
2023-01-27T02:29:40.740Z,77.19
2023-01-27T02:32:07.327Z,77.54
2023-01-27T02:34:37.687Z,77.90
2023-01-27T02:37:09.108Z,77.98
2023-01-27T02:39:43.292Z,77.28
2023-01-27T02:42:14.248Z,77.37
2023-01-27T02:44:40.998Z,77.31
2023-01-27T02:47:07.879Z,77.98
2023-01-27T02:49:34.499Z,77.51
2023-01-27T02:52:02.323Z,78.18
2023-01-27T02:54:30.425Z,78.65
2023-01-27T02:56:57.519Z,78.91
2023-01-27T02:59:26.437Z,78.84
2023-01-27T03:01:53.214Z,78.82
2023-01-27T03:04:20.064Z,77.20
2023-01-27T03:06:46.603Z,77.83
2023-01-27T03:09:13.322Z,77.64
2023-01-27T03:11:58.731Z,78.02
2023-01-27T03:14:44.098Z,78.16
2023-01-27T03:17:29.644Z,78.19
2023-01-27T03:19:57.142Z,78.69
2023-01-27T03:22:26.100Z,78.08
2023-01-27T03:24:53.599Z,78.03
2023-01-27T03:27:20.264Z,78.50
2023-01-27T03:30:06.783Z,78.79
2023-01-27T03:32:34.321Z,78.74
2023-01-27T03:35:23.265Z,79.00
2023-01-27T03:38:08.909Z,79.47
2023-01-27T03:40:54.109Z,79.40
2023-01-27T03:43:39.197Z,79.46
2023-01-27T03:46:15.890Z,79.37
2023-01-27T03:48:42.621Z,80.51
2023-01-27T03:51:10.410Z,80.44
2023-01-27T03:53:37.764Z,81.12
2023-01-27T03:56:06.318Z,80.67
2023-01-27T03:58:35.794Z,80.44
2023-01-27T04:01:05.628Z,80.02
2023-01-27T04:03:53.931Z,81.26
2023-01-27T04:06:44.187Z,81.70
2023-01-27T04:09:12.656Z,80.92
2023-01-27T04:11:58.947Z,81.20
2023-01-27T04:14:27.501Z,81.38
2023-01-27T04:16:57.092Z,81.45
2023-01-27T04:19:24.041Z,81.66
2023-01-27T04:21:50.599Z,82.08
2023-01-27T04:24:22.422Z,81.43
2023-01-27T04:26:54.696Z,81.34
2023-01-27T04:29:23.874Z,81.67
2023-01-27T04:31:51.000Z,82.36
2023-01-27T04:34:18.438Z,82.57
2023-01-27T04:36:45.695Z,81.93
2023-01-27T04:39:12.291Z,81.90
2023-01-27T04:41:39.148Z,81.19
2023-01-27T04:44:06.787Z,81.95
2023-01-27T04:46:34.207Z,81.25
2023-01-27T04:49:01.581Z,81.54
2023-01-27T04:51:28.469Z,81.00
2023-01-27T04:53:55.633Z,81.06
2023-01-27T04:56:45.554Z,80.92
2023-01-27T04:59:14.180Z,80.67
2023-01-27T05:01:41.172Z,80.76
2023-01-27T05:04:07.801Z,80.60
2023-01-27T05:06:34.476Z,81.63
2023-01-27T05:09:01.637Z,81.54
2023-01-27T05:11:28.329Z,81.70
2023-01-27T05:13:54.961Z,81.86
2023-01-27T05:16:24.131Z,81.50
2023-01-27T05:18:52.891Z,80.52
2023-01-27T05:21:28.336Z,79.93
2023-01-27T05:23:54.989Z,79.99
2023-01-27T05:26:24.769Z,80.28
2023-01-27T05:28:52.526Z,80.69
2023-01-27T05:31:20.552Z,80.49
2023-01-27T05:33:49.667Z,79.69
2023-01-27T05:36:18.217Z,78.75
2023-01-27T05:38:45.527Z,77.88
2023-01-27T05:41:13.967Z,78.64
2023-01-27T05:43:42.917Z,77.35
2023-01-27T05:46:13.183Z,77.63
2023-01-27T05:48:48.512Z,77.18
2023-01-27T05:51:17.840Z,76.42
2023-01-27T05:53:45.004Z,76.88
2023-01-27T05:56:14.651Z,77.29
2023-01-27T05:58:41.717Z,76.87
2023-01-27T06:01:14.827Z,77.44
2023-01-27T06:03:41.928Z,77.05
2023-01-27T06:06:09.595Z,77.33
2023-01-27T06:08:37.218Z,77.80
2023-01-27T06:11:04.704Z,77.40
2023-01-27T06:13:31.744Z,77.73
2023-01-27T06:15:58.408Z,77.44
2023-01-27T06:18:24.992Z,78.09
2023-01-27T06:20:51.575Z,78.27
2023-01-27T06:23:18.417Z,78.36
2023-01-27T06:25:48.969Z,78.55
2023-01-27T06:28:28.343Z,78.59
2023-01-27T06:30:56.621Z,79.08
2023-01-27T06:33:23.460Z,78.47
2023-01-27T06:35:50.210Z,78.98
2023-01-27T06:38:16.997Z,79.04
2023-01-27T06:40:44.117Z,78.69
2023-01-27T06:43:14.290Z,79.19
2023-01-27T06:45:41.337Z,79.44
2023-01-27T06:48:11.141Z,78.73
2023-01-27T06:50:37.721Z,78.62
2023-01-27T06:53:06.214Z,78.74
2023-01-27T06:55:33.866Z,78.21
2023-01-27T06:58:03.280Z,77.66
2023-01-27T07:00:30.133Z,77.55
2023-01-27T07:02:57.292Z,77.44
2023-01-27T07:05:24.310Z,77.01
2023-01-27T07:07:51.058Z,76.83
2023-01-27T07:10:18.000Z,76.82
2023-01-27T07:12:44.978Z,76.23
2023-01-27T07:15:12.370Z,76.48
2023-01-27T07:17:39.047Z,77.13
2023-01-27T07:20:08.294Z,77.89
2023-01-27T07:22:34.890Z,77.56
2023-01-27T07:25:02.271Z,77.69
2023-01-27T07:27:30.560Z,78.00
2023-01-27T07:29:57.142Z,77.52
2023-01-27T07:32:27.192Z,77.03
2023-01-27T07:34:54.644Z,77.74
2023-01-27T07:37:21.536Z,77.82
2023-01-27T07:39:48.200Z,77.42
2023-01-27T07:42:14.888Z,77.25
2023-01-27T07:44:41.474Z,76.88
2023-01-27T07:47:08.109Z,76.87
2023-01-27T07:49:34.758Z,76.43
2023-01-27T07:52:01.535Z,77.28
2023-01-27T07:54:28.324Z,76.55
2023-01-27T07:56:54.965Z,76.63
2023-01-27T07:59:21.637Z,76.81
2023-01-27T08:01:48.496Z,76.88
2023-01-27T08:04:15.378Z,77.54
2023-01-27T08:06:42.065Z,76.94
2023-01-27T08:09:08.770Z,77.49
2023-01-27T08:11:35.754Z,77.25
2023-01-27T08:14:03.003Z,76.63
2023-01-27T08:16:29.855Z,77.00
2023-01-27T08:18:56.729Z,77.00
2023-01-27T08:21:25.120Z,77.26
2023-01-27T08:23:53.710Z,76.40
2023-01-27T08:26:20.416Z,76.08
2023-01-27T08:28:47.148Z,76.03
2023-01-27T08:31:16.182Z,75.98
2023-01-27T08:33:45.404Z,75.91
2023-01-27T08:36:14.716Z,75.52
2023-01-27T08:38:42.982Z,75.39
2023-01-27T08:41:15.367Z,74.89
2023-01-27T08:43:42.913Z,75.06
2023-01-27T08:46:10.609Z,75.28
2023-01-27T08:48:38.276Z,75.10
2023-01-27T08:51:06.555Z,74.80
2023-01-27T08:53:33.776Z,73.86
2023-01-27T08:56:05.023Z,73.72
2023-01-27T08:58:33.290Z,73.23
2023-01-27T09:01:04.766Z,72.97
2023-01-27T09:03:32.329Z,72.53
2023-01-27T09:05:59.557Z,72.81
2023-01-27T09:08:26.792Z,72.50
2023-01-27T09:10:53.552Z,71.35
2023-01-27T09:13:22.267Z,70.99
2023-01-27T09:15:52.549Z,70.80
2023-01-27T09:18:19.755Z,71.19
2023-01-27T09:20:46.425Z,70.85
2023-01-27T09:23:13.107Z,71.66
2023-01-27T09:25:39.870Z,72.41
2023-01-27T09:28:06.744Z,72.02
2023-01-27T09:30:33.584Z,72.41
2023-01-27T09:33:01.467Z,71.28
2023-01-27T09:35:39.176Z,70.44
2023-01-27T09:38:06.973Z,71.25
2023-01-27T09:41:10.557Z,70.93
2023-01-27T09:43:46.673Z,69.77
2023-01-27T09:47:00.743Z,69.63
2023-01-27T09:50:01.464Z,68.66
2023-01-27T09:53:03.762Z,68.69
2023-01-27T09:55:38.253Z,69.19
2023-01-27T09:58:26.041Z,68.55
2023-01-27T10:01:22.049Z,67.74
2023-01-27T10:04:05.923Z,66.73
2023-01-27T10:07:03.002Z,66.15
2023-01-27T10:09:39.469Z,66.86
2023-01-27T10:12:22.999Z,68.16
2023-01-27T10:15:18.425Z,67.96
2023-01-27T10:18:10.089Z,67.87
2023-01-27T10:21:03.696Z,67.68
2023-01-27T10:23:57.218Z,67.77
2023-01-27T10:26:35.746Z,67.13
2023-01-27T10:29:25.058Z,67.51
2023-01-27T10:32:08.265Z,66.83
2023-01-27T10:34:39.097Z,67.01
2023-01-27T10:37:33.128Z,67.93
2023-01-27T10:40:10.627Z,68.31
2023-01-27T10:42:54.492Z,68.20
2023-01-27T10:45:30.744Z,68.26
2023-01-27T10:48:15.359Z,67.75
2023-01-27T10:50:50.562Z,67.33
2023-01-27T10:53:49.363Z,67.61
2023-01-27T10:56:32.433Z,68.14
2023-01-27T10:59:10.692Z,67.83
2023-01-27T11:01:44.861Z,67.70
2023-01-27T11:04:36.761Z,66.60
2023-01-27T11:07:06.506Z,67.37
2023-01-27T11:09:37.443Z,67.82
2023-01-27T11:12:15.095Z,68.97
2023-01-27T11:14:47.561Z,68.39
2023-01-27T11:17:21.822Z,68.28
2023-01-27T11:20:30.487Z,69.16
2023-01-27T11:23:04.523Z,67.84
2023-01-27T11:25:46.893Z,67.95
2023-01-27T11:28:48.911Z,67.73
2023-01-27T11:31:38.190Z,68.42
2023-01-27T11:34:16.602Z,68.65
2023-01-27T11:36:43.306Z,69.26
2023-01-27T11:39:12.038Z,68.77
2023-01-27T11:41:43.480Z,68.36
2023-01-27T11:44:19.289Z,68.32
2023-01-27T11:46:48.098Z,68.93
2023-01-27T11:49:32.090Z,69.09
2023-01-27T11:52:05.862Z,68.87
2023-01-27T11:54:47.042Z,68.52
2023-01-27T11:57:25.095Z,69.06
2023-01-27T11:59:56.916Z,67.45
2023-01-27T12:02:29.746Z,67.18
2023-01-27T12:05:21.251Z,67.78
2023-01-27T12:07:59.970Z,67.48
2023-01-27T12:10:34.721Z,67.61
2023-01-27T12:13:20.586Z,67.01
2023-01-27T12:15:58.986Z,67.23
2023-01-27T12:18:25.750Z,67.57
2023-01-27T12:21:05.007Z,67.97
2023-01-27T12:23:36.620Z,66.62
2023-01-27T12:26:07.054Z,66.32
2023-01-27T12:28:37.989Z,65.70
2023-01-27T12:31:22.754Z,65.32
2023-01-27T12:34:01.915Z,64.90
2023-01-27T12:36:30.388Z,63.97
2023-01-27T12:39:01.540Z,64.54
2023-01-27T12:41:36.004Z,65.32
2023-01-27T12:44:16.232Z,64.07
2023-01-27T12:47:03.024Z,64.19
2023-01-27T12:49:38.182Z,65.09
2023-01-27T12:52:17.100Z,65.28
2023-01-27T12:54:43.683Z,65.62
2023-01-27T12:57:18.953Z,65.43
2023-01-27T12:59:51.729Z,66.89
2023-01-27T13:02:23.855Z,66.67
2023-01-27T13:05:00.857Z,65.31
2023-01-27T13:07:31.739Z,65.26
2023-01-27T13:10:04.496Z,65.07
2023-01-27T13:12:47.562Z,64.73
2023-01-27T13:15:22.496Z,65.29
2023-01-27T13:17:54.488Z,66.22
2023-01-27T13:20:24.111Z,65.23
2023-01-27T13:22:53.144Z,65.35
2023-01-27T13:25:27.789Z,65.42
2023-01-27T13:27:59.050Z,66.29
2023-01-27T13:30:41.914Z,65.50
2023-01-27T13:33:41.009Z,65.43
2023-01-27T13:36:16.825Z,64.45
2023-01-27T13:38:59.984Z,64.38
2023-01-27T13:41:37.165Z,64.16
2023-01-27T13:44:19.884Z,63.81
2023-01-27T13:46:49.452Z,63.77
2023-01-27T13:49:37.811Z,64.33
2023-01-27T13:52:07.923Z,64.46
2023-01-27T13:54:34.534Z,64.03
2023-01-27T13:57:19.967Z,64.16
2023-01-27T14:00:04.362Z,63.60
2023-01-27T14:03:24.676Z,64.17
2023-01-27T14:06:24.823Z,63.82
2023-01-27T14:09:08.637Z,64.35
2023-01-27T14:11:42.420Z,64.62
2023-01-27T14:14:27.784Z,64.61
2023-01-27T14:17:34.630Z,64.00
2023-01-27T14:20:28.425Z,63.48
2023-01-27T14:22:58.238Z,63.81
2023-01-27T14:25:30.629Z,64.80
2023-01-27T14:28:24.930Z,63.96
2023-01-27T14:30:57.428Z,62.45
2023-01-27T14:33:34.676Z,62.25
2023-01-27T14:36:18.999Z,62.79
2023-01-27T14:39:02.346Z,62.27
2023-01-27T14:41:44.033Z,62.22
2023-01-27T14:44:19.001Z,62.80
2023-01-27T14:47:24.157Z,63.13
2023-01-27T14:50:10.338Z,62.56
2023-01-27T14:53:05.670Z,62.76
2023-01-27T14:55:45.117Z,62.51
2023-01-27T14:58:23.882Z,63.35
2023-01-27T15:01:12.492Z,63.64
2023-01-27T15:04:05.265Z,63.20
2023-01-27T15:06:48.711Z,63.27
2023-01-27T15:09:34.157Z,64.32
2023-01-27T15:12:28.985Z,64.15
2023-01-27T15:15:06.478Z,64.30
2023-01-27T15:17:46.411Z,64.07
2023-01-27T15:20:28.080Z,64.47
2023-01-27T15:23:22.464Z,64.28
2023-01-27T15:26:01.659Z,64.83
2023-01-27T15:28:31.334Z,65.30
2023-01-27T15:31:08.508Z,64.99
2023-01-27T15:33:56.118Z,65.11
2023-01-27T15:36:32.016Z,65.66
2023-01-27T15:39:20.283Z,66.12
2023-01-27T15:42:09.837Z,66.67
2023-01-27T15:44:57.276Z,67.25
2023-01-27T15:47:28.787Z,67.51
2023-01-27T15:50:07.418Z,67.70
2023-01-27T15:52:59.446Z,67.95
2023-01-27T15:55:29.985Z,68.00
2023-01-27T15:58:11.749Z,68.13
2023-01-27T16:00:42.286Z,68.68
2023-01-27T16:03:35.708Z,68.51
2023-01-27T16:06:09.664Z,68.95
2023-01-27T16:08:43.314Z,69.26
2023-01-27T16:11:28.244Z,69.23
2023-01-27T16:14:13.087Z,69.60
2023-01-27T16:16:51.754Z,70.16
2023-01-27T16:19:23.315Z,69.88
2023-01-27T16:21:57.495Z,69.78
2023-01-27T16:24:31.750Z,69.95
2023-01-27T16:27:13.716Z,69.78
2023-01-27T16:29:49.453Z,69.49
2023-01-27T16:32:25.557Z,69.36
2023-01-27T16:34:58.006Z,69.37
2023-01-27T16:37:29.176Z,69.39
2023-01-27T16:40:13.283Z,69.34
2023-01-27T16:42:51.808Z,69.77
2023-01-27T16:45:25.161Z,69.65
2023-01-27T16:48:01.883Z,70.46
2023-01-27T16:50:37.411Z,70.13
2023-01-27T16:53:07.023Z,70.09
2023-01-27T16:55:33.783Z,69.63
2023-01-27T16:58:02.235Z,69.53
2023-01-27T17:00:33.784Z,69.26
2023-01-27T17:03:05.267Z,69.52
2023-01-27T17:05:32.027Z,69.28
2023-01-27T17:08:04.441Z,69.33
2023-01-27T17:10:35.445Z,69.82
2023-01-27T17:13:02.634Z,70.18
2023-01-27T17:15:36.472Z,70.23
2023-01-27T17:18:10.045Z,69.71
2023-01-27T17:20:40.812Z,69.73
2023-01-27T17:23:07.713Z,69.78
2023-01-27T17:25:43.759Z,68.92
2023-01-27T17:28:17.443Z,69.70
2023-01-27T17:30:46.824Z,69.58
2023-01-27T17:33:19.709Z,69.68
2023-01-27T17:35:54.936Z,70.21
2023-01-27T17:38:24.309Z,69.71
2023-01-27T17:40:53.264Z,69.57
2023-01-27T17:43:34.663Z,69.67
2023-01-27T17:46:14.170Z,69.21
2023-01-27T17:48:48.936Z,69.02
2023-01-27T17:51:26.331Z,68.89
2023-01-27T17:53:54.086Z,71.56
2023-01-27T17:56:29.191Z,70.15
2023-01-27T17:59:01.774Z,70.27
2023-01-27T18:01:29.557Z,70.26
2023-01-27T18:03:57.815Z,70.22
2023-01-27T18:06:29.513Z,69.81
2023-01-27T18:09:00.910Z,69.56
2023-01-27T18:11:31.778Z,69.47
2023-01-27T18:14:09.074Z,69.17
2023-01-27T18:16:36.057Z,69.38
2023-01-27T18:19:23.540Z,69.67
2023-01-27T18:22:02.147Z,69.19
2023-01-27T18:24:28.936Z,69.75
2023-01-27T18:26:55.705Z,68.93
2023-01-27T18:29:27.378Z,68.73
2023-01-27T18:32:07.773Z,68.97
2023-01-27T18:34:49.296Z,69.23
2023-01-27T18:37:33.180Z,69.29
2023-01-27T18:40:01.869Z,69.55
2023-01-27T18:42:31.583Z,69.49
2023-01-27T18:44:58.433Z,69.59
2023-01-27T18:47:29.318Z,69.42
2023-01-27T18:49:55.886Z,69.42
2023-01-27T18:52:22.974Z,69.93
2023-01-27T18:54:54.739Z,69.32
2023-01-27T18:57:21.510Z,70.05
2023-01-27T18:59:48.898Z,69.97
2023-01-27T19:02:16.096Z,69.65
2023-01-27T19:04:43.740Z,69.57
2023-01-27T19:07:15.953Z,69.91
2023-01-27T19:09:44.465Z,69.58
2023-01-27T19:12:12.060Z,70.38
2023-01-27T19:14:41.415Z,69.87
2023-01-27T19:17:22.602Z,69.87
2023-01-27T19:19:49.902Z,70.16
2023-01-27T19:22:22.046Z,69.51
2023-01-27T19:24:50.509Z,69.43
2023-01-27T19:27:19.236Z,69.69
2023-01-27T19:29:45.942Z,69.65
2023-01-27T19:32:15.811Z,69.86
2023-01-27T19:34:42.415Z,69.98
2023-01-27T19:37:17.413Z,70.23
2023-01-27T19:39:45.577Z,70.38
2023-01-27T19:42:14.597Z,70.72
2023-01-27T19:44:41.673Z,70.62
2023-01-27T19:47:12.940Z,70.21
2023-01-27T19:49:40.495Z,70.06
2023-01-27T19:52:10.242Z,69.96
2023-01-27T19:54:37.055Z,70.20
2023-01-27T19:57:05.053Z,70.25
2023-01-27T19:59:32.003Z,70.32
2023-01-27T20:01:58.689Z,70.23
2023-01-27T20:04:26.490Z,70.61
2023-01-27T20:06:53.185Z,70.49
2023-01-27T20:09:19.906Z,70.20
2023-01-27T20:11:46.560Z,70.45
2023-01-27T20:14:16.030Z,70.45
2023-01-27T20:16:46.694Z,70.16
2023-01-27T20:19:17.402Z,70.19
2023-01-27T20:21:45.872Z,70.34
2023-01-27T20:24:15.578Z,70.65
2023-01-27T20:26:42.276Z,69.95
2023-01-27T20:29:09.182Z,70.69
2023-01-27T20:31:38.326Z,71.52
2023-01-27T20:34:05.186Z,70.81
2023-01-27T20:36:31.905Z,70.89
2023-01-27T20:38:58.546Z,70.90
2023-01-27T20:41:25.468Z,70.52
2023-01-27T20:44:00.449Z,71.27
2023-01-27T20:46:28.541Z,70.87
2023-01-27T20:48:55.300Z,71.85
2023-01-27T20:51:22.193Z,71.43
2023-01-27T20:53:49.288Z,71.44
2023-01-27T20:56:17.890Z,71.25
2023-01-27T20:58:45.022Z,71.31
2023-01-27T21:01:14.643Z,71.69
2023-01-27T21:03:41.791Z,71.91
2023-01-27T21:06:10.361Z,72.20
2023-01-27T21:08:37.109Z,72.45
2023-01-27T21:11:06.550Z,72.80
2023-01-27T21:13:33.532Z,72.85
2023-01-27T21:16:01.755Z,72.50
2023-01-27T21:18:28.813Z,72.76
2023-01-27T21:20:59.407Z,73.06
2023-01-27T21:23:27.983Z,73.30
2023-01-27T21:25:54.945Z,73.31
2023-01-27T21:28:22.116Z,72.88
2023-01-27T21:30:48.953Z,73.09
2023-01-27T21:33:15.565Z,73.36
2023-01-27T21:35:42.220Z,73.16
2023-01-27T21:38:08.843Z,73.80
2023-01-27T21:40:35.754Z,74.18
2023-01-27T21:43:20.667Z,74.65
2023-01-27T21:45:58.376Z,74.81
2023-01-27T21:48:25.079Z,74.58
2023-01-27T21:50:51.835Z,74.82
2023-01-27T21:53:18.835Z,75.19
2023-01-27T21:55:45.491Z,74.66
2023-01-27T21:58:12.537Z,74.10
2023-01-27T22:00:39.311Z,74.08
2023-01-27T22:03:05.953Z,74.83
2023-01-27T22:05:35.309Z,74.47
2023-01-27T22:08:02.492Z,74.60
2023-01-27T22:10:30.557Z,75.03
2023-01-27T22:12:59.219Z,75.59
2023-01-27T22:15:29.910Z,75.40
2023-01-27T22:17:59.862Z,75.57
2023-01-27T22:20:27.818Z,76.61
2023-01-27T22:22:55.003Z,76.35
2023-01-27T22:25:21.841Z,75.85
2023-01-27T22:27:48.464Z,75.76
2023-01-27T22:30:17.640Z,75.07
2023-01-27T22:32:45.932Z,74.92
2023-01-27T22:35:17.934Z,74.31
2023-01-27T22:37:45.820Z,74.58
2023-01-27T22:40:13.318Z,74.79
2023-01-27T22:42:40.244Z,74.44
2023-01-27T22:45:10.807Z,74.34
2023-01-27T22:47:37.496Z,75.18
2023-01-27T22:50:04.285Z,75.68
2023-01-27T22:52:31.129Z,75.17
2023-01-27T22:54:57.758Z,75.59
2023-01-27T22:57:30.049Z,75.69
2023-01-27T22:59:57.789Z,76.73
2023-01-27T23:02:29.609Z,76.70
2023-01-27T23:04:57.624Z,76.77
2023-01-27T23:07:25.095Z,76.87
2023-01-27T23:09:52.201Z,76.52
2023-01-27T23:12:18.817Z,76.87
2023-01-27T23:14:45.549Z,76.71
2023-01-27T23:17:12.168Z,77.16
2023-01-27T23:19:38.856Z,76.47
2023-01-27T23:22:05.678Z,76.25
2023-01-27T23:24:32.838Z,76.92
2023-01-27T23:26:59.529Z,76.03
2023-01-27T23:29:27.277Z,76.31
2023-01-27T23:31:55.778Z,76.83
2023-01-27T23:34:22.546Z,76.45
2023-01-27T23:36:49.130Z,76.91
2023-01-27T23:39:16.414Z,77.15
2023-01-27T23:41:43.048Z,77.74
2023-01-27T23:44:12.364Z,77.67
2023-01-27T23:46:39.336Z,77.83
2023-01-27T23:49:06.213Z,77.81
2023-01-27T23:51:32.821Z,77.92
2023-01-27T23:53:59.430Z,77.86
2023-01-27T23:56:26.058Z,78.05
2023-01-27T23:58:52.781Z,78.34
